createdAt,value
2022-09-03T00:00:39.531Z,1.98
2022-09-03T00:03:21.272Z,2.00
2022-09-03T00:05:59.097Z,2.30
2022-09-03T00:08:35.662Z,1.60
2022-09-03T00:11:15.025Z,1.65
2022-09-03T00:13:50.222Z,1.55
2022-09-03T00:16:24.363Z,1.48
2022-09-03T00:19:00.957Z,1.50
2022-09-03T00:21:41.005Z,1.40
2022-09-03T00:24:15.472Z,1.63
2022-09-03T00:26:48.579Z,1.80
2022-09-03T00:29:20.549Z,1.70
2022-09-03T00:31:54.277Z,1.50
2022-09-03T00:34:33.566Z,1.63
2022-09-03T00:37:03.814Z,1.60
2022-09-03T00:39:33.842Z,1.90
2022-09-03T00:42:21.084Z,1.60
2022-09-03T00:45:11.903Z,1.70
2022-09-03T00:47:55.232Z,1.70
2022-09-03T00:50:37.268Z,1.65
2022-09-03T00:53:14.619Z,1.88
2022-09-03T00:55:55.684Z,1.60
2022-09-03T00:58:43.407Z,1.52
2022-09-03T01:01:19.614Z,2.38
2022-09-03T01:04:04.195Z,1.40
2022-09-03T01:06:44.425Z,1.80
2022-09-03T01:09:33.682Z,1.90
2022-09-03T01:12:14.886Z,1.70
2022-09-03T01:14:58.837Z,2.20
2022-09-03T01:17:39.743Z,1.70
2022-09-03T01:20:39.639Z,1.48
2022-09-03T01:23:30.654Z,1.95
2022-09-03T01:26:18.160Z,1.63
2022-09-03T01:29:00.921Z,1.80
2022-09-03T01:31:40.290Z,1.48
2022-09-03T01:34:22.294Z,1.63
2022-09-03T01:37:02.407Z,1.70
2022-09-03T01:39:45.304Z,1.70
2022-09-03T01:42:25.845Z,1.92
2022-09-03T01:45:21.536Z,2.00
2022-09-03T01:48:08.046Z,1.67
2022-09-03T01:50:46.609Z,2.08
2022-09-03T01:53:30.284Z,1.63
2022-09-03T01:56:15.567Z,1.77
2022-09-03T01:58:49.630Z,2.00
2022-09-03T02:01:29.396Z,2.03
2022-09-03T02:04:00.228Z,1.88
2022-09-03T02:06:32.057Z,1.80
2022-09-03T02:09:01.923Z,1.70
2022-09-03T02:11:31.928Z,1.77
2022-09-03T02:14:04.935Z,1.60
2022-09-03T02:16:39.053Z,1.90
2022-09-03T02:19:13.673Z,1.70
2022-09-03T02:21:49.684Z,2.10
2022-09-03T02:24:19.836Z,1.95
2022-09-03T02:26:50.047Z,1.90
2022-09-03T02:29:20.780Z,1.70
2022-09-03T02:31:53.570Z,1.70
2022-09-03T02:34:23.653Z,1.98
2022-09-03T02:36:54.603Z,1.88
2022-09-03T02:39:24.516Z,2.00
2022-09-03T02:42:00.135Z,1.73
2022-09-03T02:44:34.296Z,1.85
2022-09-03T02:47:09.158Z,1.87
2022-09-03T02:49:39.468Z,2.08
2022-09-03T02:52:12.304Z,2.30
2022-09-03T02:54:42.643Z,2.23
2022-09-03T02:57:14.622Z,1.88
2022-09-03T02:59:46.054Z,2.03
2022-09-03T03:02:18.584Z,2.20
2022-09-03T03:04:48.522Z,2.03
2022-09-03T03:07:18.404Z,2.50
2022-09-03T03:09:48.214Z,2.08
2022-09-03T03:12:19.299Z,2.10
2022-09-03T03:14:49.211Z,2.70
2022-09-03T03:17:21.607Z,2.10
2022-09-03T03:19:52.056Z,1.77
2022-09-03T03:22:21.891Z,1.90
2022-09-03T03:24:52.899Z,2.10
2022-09-03T03:27:22.715Z,1.70
2022-09-03T03:29:52.609Z,2.08
2022-09-03T03:32:25.013Z,2.30
2022-09-03T03:34:54.863Z,2.23
2022-09-03T03:37:24.707Z,2.33
2022-09-03T03:39:54.615Z,2.45
2022-09-03T03:42:24.573Z,2.38
2022-09-03T03:44:54.437Z,2.00
2022-09-03T03:47:26.893Z,2.10
2022-09-03T03:49:56.788Z,2.30
2022-09-03T03:52:26.930Z,2.77
2022-09-03T03:54:57.172Z,2.50
2022-09-03T03:57:27.338Z,2.65
2022-09-03T03:59:57.178Z,2.50
2022-09-03T04:02:29.628Z,2.43
2022-09-03T04:04:59.710Z,2.70
2022-09-03T04:07:29.710Z,2.30
2022-09-03T04:10:00.783Z,2.55
2022-09-03T04:12:30.896Z,2.97
2022-09-03T04:15:00.699Z,2.47
2022-09-03T04:17:33.394Z,2.30
2022-09-03T04:20:03.246Z,2.67
2022-09-03T04:22:33.967Z,2.47
2022-09-03T04:25:03.874Z,2.30
2022-09-03T04:27:34.044Z,2.65
2022-09-03T04:30:03.927Z,2.42
2022-09-03T04:32:49.372Z,2.42
2022-09-03T04:35:23.155Z,2.80
2022-09-03T04:37:55.277Z,2.37
2022-09-03T04:40:25.100Z,2.77
2022-09-03T04:43:00.413Z,2.70
2022-09-03T04:45:30.748Z,2.80
2022-09-03T04:48:05.786Z,2.63
2022-09-03T04:50:35.875Z,2.60
2022-09-03T04:53:08.678Z,2.70
2022-09-03T04:55:39.983Z,2.40
2022-09-03T04:58:10.570Z,3.20
2022-09-03T05:00:40.825Z,2.90
2022-09-03T05:03:13.364Z,3.37
2022-09-03T05:05:43.334Z,3.10
2022-09-03T05:08:13.239Z,2.67
2022-09-03T05:10:43.107Z,2.90
2022-09-03T05:13:12.934Z,3.20
2022-09-03T05:15:45.523Z,3.37
2022-09-03T05:18:18.029Z,2.83
2022-09-03T05:20:48.297Z,3.20
2022-09-03T05:23:19.883Z,2.90
2022-09-03T05:25:59.009Z,2.97
2022-09-03T05:28:30.493Z,3.13
2022-09-03T05:31:03.976Z,3.78
2022-09-03T05:33:38.050Z,2.67
2022-09-03T05:36:10.089Z,3.00
2022-09-03T05:38:40.141Z,3.03
2022-09-03T05:41:13.061Z,2.80
2022-09-03T05:43:43.408Z,2.40
2022-09-03T05:46:16.988Z,3.03
2022-09-03T05:48:49.456Z,2.60
2022-09-03T05:51:20.723Z,2.60
2022-09-03T05:53:53.531Z,3.58
2022-09-03T05:56:25.714Z,3.13
2022-09-03T05:58:57.323Z,2.53
2022-09-03T06:01:29.044Z,2.60
2022-09-03T06:04:03.725Z,2.47
2022-09-03T06:06:35.462Z,2.38
2022-09-03T06:09:08.689Z,2.73
2022-09-03T06:11:40.090Z,2.90
2022-09-03T06:14:12.415Z,2.47
2022-09-03T06:16:44.153Z,2.47
2022-09-03T06:19:16.591Z,2.37
2022-09-03T06:21:48.291Z,2.83
2022-09-03T06:24:20.334Z,3.08
2022-09-03T06:26:51.733Z,2.50
2022-09-03T06:29:22.055Z,2.60
2022-09-03T06:31:52.172Z,2.50
2022-09-03T06:34:25.703Z,3.57
2022-09-03T06:36:55.762Z,4.13
2022-09-03T06:39:27.142Z,2.60
2022-09-03T06:41:57.092Z,2.30
2022-09-03T06:44:37.854Z,2.42
2022-09-03T06:47:09.550Z,2.53
2022-09-03T06:49:41.934Z,2.70
2022-09-03T06:52:11.803Z,2.20
2022-09-03T06:54:42.365Z,2.30
2022-09-03T06:57:12.388Z,2.70
2022-09-03T06:59:43.863Z,2.38
2022-09-03T07:02:14.460Z,2.58
2022-09-03T07:04:46.953Z,2.15
2022-09-03T07:07:18.673Z,2.33
2022-09-03T07:09:48.593Z,2.20
2022-09-03T07:12:19.382Z,1.92
2022-09-03T07:14:51.103Z,2.20
2022-09-03T07:17:21.213Z,2.40
2022-09-03T07:19:53.668Z,2.38
2022-09-03T07:22:23.687Z,3.25
2022-09-03T07:25:02.536Z,2.22
2022-09-03T07:27:32.438Z,1.95
2022-09-03T07:30:03.532Z,2.25
2022-09-03T07:32:33.605Z,2.25
2022-09-03T07:35:06.244Z,2.67
2022-09-03T07:37:36.641Z,2.38
2022-09-03T07:40:06.923Z,2.45
2022-09-03T07:42:38.628Z,2.40
2022-09-03T07:45:10.807Z,2.60
2022-09-03T07:47:42.480Z,4.80
2022-09-03T07:50:16.276Z,2.60
2022-09-03T07:52:46.163Z,2.60
2022-09-03T07:55:16.574Z,2.88
2022-09-03T07:57:46.655Z,2.60
2022-09-03T08:00:18.346Z,2.38
2022-09-03T08:02:48.214Z,2.85
2022-09-03T08:05:21.450Z,2.70
2022-09-03T08:07:51.492Z,2.20
2022-09-03T08:10:22.782Z,2.75
2022-09-03T08:12:52.672Z,2.30
2022-09-03T08:15:22.615Z,2.75
2022-09-03T08:17:52.492Z,2.67
2022-09-03T08:20:24.922Z,3.50
2022-09-03T08:22:54.788Z,2.00
2022-09-03T08:25:24.864Z,2.45
2022-09-03T08:27:54.822Z,2.25
2022-09-03T08:30:25.395Z,2.22
2022-09-03T08:32:55.273Z,2.10
2022-09-03T08:35:28.004Z,2.08
2022-09-03T08:37:57.851Z,2.00
2022-09-03T08:40:27.739Z,2.95
2022-09-03T08:43:06.993Z,2.22
2022-09-03T08:45:39.453Z,2.25
2022-09-03T08:48:13.904Z,1.88
2022-09-03T08:50:50.120Z,2.13
2022-09-03T08:53:25.163Z,1.80
2022-09-03T08:55:58.809Z,2.75
2022-09-03T08:58:30.674Z,2.05
2022-09-03T09:01:06.828Z,2.00
2022-09-03T09:03:45.261Z,1.92
2022-09-03T09:06:24.314Z,1.77
2022-09-03T09:09:17.076Z,2.20
2022-09-03T09:11:58.913Z,2.15
2022-09-03T09:14:36.180Z,1.92
2022-09-03T09:17:21.014Z,2.08
2022-09-03T09:20:03.484Z,1.70
2022-09-03T09:22:40.457Z,2.00
2022-09-03T09:25:17.000Z,2.17
2022-09-03T09:28:04.248Z,2.53
2022-09-03T09:30:35.988Z,2.55
2022-09-03T09:33:07.247Z,2.08
2022-09-03T09:35:37.113Z,1.63
2022-09-03T09:38:09.660Z,1.90
2022-09-03T09:40:45.309Z,1.80
2022-09-03T09:43:17.098Z,1.88
2022-09-03T09:45:48.840Z,2.00
2022-09-03T09:48:27.212Z,1.70
2022-09-03T09:51:08.144Z,1.70
2022-09-03T09:53:40.923Z,1.95
2022-09-03T09:56:11.325Z,1.67
2022-09-03T09:58:41.594Z,3.08
2022-09-03T10:01:15.933Z,1.70
2022-09-03T10:03:55.453Z,1.77
2022-09-03T10:06:40.017Z,1.50
2022-09-03T10:09:15.961Z,1.95
2022-09-03T10:11:50.946Z,1.55
2022-09-03T10:14:27.165Z,1.35
2022-09-03T10:17:06.726Z,1.67
2022-09-03T10:20:07.046Z,1.83
2022-09-03T10:22:56.420Z,1.63
2022-09-03T10:25:39.231Z,1.40
2022-09-03T10:28:13.997Z,1.65
2022-09-03T10:31:07.548Z,1.25
2022-09-03T10:33:44.380Z,1.30
2022-09-03T10:36:21.583Z,1.60
2022-09-03T10:38:56.948Z,2.60
2022-09-03T10:41:44.067Z,1.23
2022-09-03T10:44:28.889Z,2.15
2022-09-03T10:47:14.619Z,1.52
2022-09-03T10:49:59.972Z,1.83
2022-09-03T10:52:34.649Z,1.83
2022-09-03T10:55:17.996Z,1.98
2022-09-03T10:57:54.534Z,1.60
2022-09-03T11:00:24.441Z,2.00
2022-09-03T11:03:10.508Z,1.50
2022-09-03T11:05:43.910Z,1.77
2022-09-03T11:08:18.020Z,1.88
2022-09-03T11:10:53.388Z,1.73
2022-09-03T11:13:35.875Z,1.58
2022-09-03T11:16:12.557Z,1.45
2022-09-03T11:18:47.656Z,1.77
2022-09-03T11:21:23.469Z,1.40
2022-09-03T11:24:00.898Z,1.67
2022-09-03T11:26:35.084Z,2.35
2022-09-03T11:29:15.165Z,2.78
2022-09-03T11:32:00.594Z,1.80
2022-09-03T11:34:34.057Z,2.00
2022-09-03T11:37:21.180Z,1.90
2022-09-03T11:40:02.622Z,1.48
2022-09-03T11:42:39.722Z,1.90
2022-09-03T11:45:26.033Z,1.77
2022-09-03T11:47:56.488Z,2.10
2022-09-03T11:50:28.802Z,2.10
2022-09-03T11:53:11.709Z,1.65
2022-09-03T11:55:56.296Z,1.92
2022-09-03T11:58:32.942Z,1.90
2022-09-03T12:01:15.072Z,1.50
2022-09-03T12:03:52.879Z,2.20
2022-09-03T12:06:41.644Z,1.50
2022-09-03T12:09:24.613Z,1.42
2022-09-03T12:12:05.720Z,1.55
2022-09-03T12:14:44.116Z,1.80
2022-09-03T12:17:31.587Z,1.25
2022-09-03T12:20:04.118Z,1.27
2022-09-03T12:22:40.323Z,1.40
2022-09-03T12:25:13.227Z,1.48
2022-09-03T12:27:45.913Z,1.25
2022-09-03T12:30:19.887Z,1.48
2022-09-03T12:32:52.664Z,1.42
2022-09-03T12:38:18.667Z,1.50
2022-09-03T12:43:39.555Z,1.30
2022-09-03T12:46:18.089Z,1.30
2022-09-03T12:51:51.097Z,1.65
2022-09-03T12:54:21.604Z,1.50
2022-09-03T12:56:57.502Z,1.55
2022-09-03T12:59:31.466Z,1.60
2022-09-03T13:02:07.344Z,1.50
2022-09-03T13:04:42.274Z,1.50
2022-09-03T13:07:24.282Z,1.88
2022-09-03T13:09:54.404Z,1.30
2022-09-03T13:12:26.009Z,1.33
2022-09-03T13:14:56.247Z,1.73
2022-09-03T13:17:40.181Z,1.95
2022-09-03T13:20:35.158Z,1.98
2022-09-03T13:23:33.350Z,2.47
2022-09-03T13:26:14.718Z,1.63
2022-09-03T13:28:58.783Z,1.40
2022-09-03T13:31:34.222Z,1.48
2022-09-03T13:34:09.884Z,1.55
2022-09-03T13:36:48.061Z,1.30
2022-09-03T13:39:27.199Z,1.20
2022-09-03T13:42:01.336Z,1.50
2022-09-03T13:44:40.973Z,1.60
2022-09-03T13:47:15.609Z,1.40
2022-09-03T13:50:03.059Z,1.60
2022-09-03T13:52:45.961Z,1.60
2022-09-03T13:55:23.980Z,1.95
2022-09-03T13:58:01.945Z,1.73
2022-09-03T14:00:36.106Z,1.67
2022-09-03T14:03:17.353Z,1.60
2022-09-03T14:06:05.412Z,1.88
2022-09-03T14:08:58.675Z,1.60
2022-09-03T14:11:35.802Z,1.55
2022-09-03T14:14:16.619Z,1.33
2022-09-03T14:16:56.132Z,1.70
2022-09-03T14:19:40.730Z,1.60
2022-09-03T14:22:17.769Z,1.80
2022-09-03T14:24:54.965Z,1.30
2022-09-03T14:27:30.169Z,1.67
2022-09-03T14:30:03.983Z,1.60
2022-09-03T14:32:42.591Z,1.58
2022-09-03T14:35:26.795Z,1.90
2022-09-03T14:38:25.893Z,2.00
2022-09-03T14:41:09.113Z,2.40
2022-09-03T14:44:06.645Z,1.67
2022-09-03T14:46:50.571Z,1.75
2022-09-03T14:49:47.211Z,1.60
2022-09-03T14:52:44.544Z,2.15
2022-09-03T14:55:28.792Z,1.55
2022-09-03T14:58:28.365Z,2.67
2022-09-03T15:01:04.176Z,1.70
2022-09-03T15:03:50.101Z,1.45
2022-09-03T15:06:31.490Z,1.70
2022-09-03T15:09:25.122Z,1.60
2022-09-03T15:12:00.922Z,1.50
2022-09-03T15:14:42.537Z,1.52
2022-09-03T15:17:42.663Z,2.03
2022-09-03T15:20:35.809Z,2.00
2022-09-03T15:23:26.915Z,1.88
2022-09-03T15:26:25.936Z,1.70
2022-09-03T15:29:11.767Z,1.83
2022-09-03T15:31:58.042Z,1.63
2022-09-03T15:34:42.855Z,1.73
2022-09-03T15:37:20.177Z,1.90
2022-09-03T15:40:03.289Z,1.70
2022-09-03T15:42:33.650Z,1.80
2022-09-03T15:45:18.176Z,1.60
2022-09-03T15:47:57.831Z,1.52
2022-09-03T15:50:36.367Z,2.03
2022-09-03T15:53:17.874Z,1.98
2022-09-03T15:55:49.882Z,2.15
2022-09-03T15:58:31.700Z,2.22
2022-09-03T16:01:06.271Z,2.20
2022-09-03T16:03:47.938Z,2.10
2022-09-03T16:06:28.055Z,2.38
2022-09-03T16:09:01.079Z,2.70
2022-09-03T16:11:40.035Z,2.63
2022-09-03T16:14:17.220Z,2.80
2022-09-03T16:16:59.936Z,2.45
2022-09-03T16:19:40.668Z,2.38
2022-09-03T16:22:17.506Z,2.35
2022-09-03T16:24:53.883Z,2.40
2022-09-03T16:27:27.371Z,2.63
2022-09-03T16:30:03.808Z,2.10
2022-09-03T16:32:51.007Z,2.75
2022-09-03T16:35:35.660Z,2.20
2022-09-03T16:38:17.269Z,2.55
2022-09-03T16:40:54.558Z,2.30
2022-09-03T16:43:41.557Z,2.05
2022-09-03T16:46:27.214Z,2.38
2022-09-03T16:49:09.264Z,1.92
2022-09-03T16:51:50.430Z,3.42
2022-09-03T16:54:33.007Z,3.80
2022-09-03T16:57:14.590Z,2.38
2022-09-03T17:00:01.786Z,2.63
2022-09-03T17:02:51.333Z,3.40
2022-09-03T17:05:51.726Z,3.20
2022-09-03T17:08:34.218Z,2.65
2022-09-03T17:11:18.998Z,2.38
2022-09-03T17:14:12.108Z,2.78
2022-09-03T17:16:55.199Z,3.00
2022-09-03T17:19:32.164Z,2.20
2022-09-03T17:22:13.461Z,2.50
2022-09-03T17:24:53.059Z,4.63
2022-09-03T17:27:54.590Z,3.00
2022-09-03T17:30:31.349Z,3.05
2022-09-03T17:33:35.985Z,2.90
2022-09-03T17:36:13.333Z,3.10
2022-09-03T17:39:06.850Z,3.50
2022-09-03T17:41:47.125Z,4.90
2022-09-03T17:44:25.766Z,3.70
2022-09-03T17:47:08.718Z,2.63
2022-09-03T17:49:47.969Z,3.20
2022-09-03T17:52:28.042Z,2.80
2022-09-03T17:55:02.273Z,2.75
2022-09-03T17:57:43.104Z,3.40
2022-09-03T18:00:25.588Z,3.20
2022-09-03T18:03:04.174Z,3.30
2022-09-03T18:05:46.215Z,3.63
2022-09-03T18:08:22.312Z,3.28
2022-09-03T18:11:03.563Z,2.90
2022-09-03T18:13:48.522Z,3.40
2022-09-03T18:16:24.653Z,3.38
2022-09-03T18:18:56.272Z,3.58
2022-09-03T18:21:41.760Z,3.80
2022-09-03T18:24:40.268Z,3.42
2022-09-03T18:27:26.874Z,3.55
2022-09-03T18:30:17.663Z,5.90
2022-09-03T18:33:00.040Z,4.82
2022-09-03T18:35:45.979Z,3.67
2022-09-03T18:38:28.423Z,3.85
2022-09-03T18:41:21.482Z,4.07
2022-09-03T18:44:12.188Z,3.70
2022-09-03T18:48:02.300Z,3.80
2022-09-03T18:50:13.865Z,4.00
2022-09-03T18:53:05.374Z,3.70
2022-09-03T18:55:59.132Z,3.78
2022-09-03T18:58:49.911Z,4.03
2022-09-03T19:01:43.543Z,4.30
2022-09-03T19:04:37.671Z,3.60
2022-09-03T19:07:26.459Z,3.42
2022-09-03T19:10:17.016Z,5.03
2022-09-03T19:13:23.572Z,4.20
2022-09-03T19:16:13.118Z,4.30
2022-09-03T19:19:17.527Z,4.30
2022-09-03T19:22:07.922Z,4.55
2022-09-03T19:24:50.304Z,4.38
2022-09-03T19:28:00.067Z,4.70
2022-09-03T19:30:58.283Z,4.20
2022-09-03T19:33:49.406Z,4.10
2022-09-03T19:36:40.302Z,5.03
2022-09-03T19:39:40.497Z,5.25
2022-09-03T19:42:32.550Z,4.82
2022-09-03T19:45:25.448Z,4.78
2022-09-03T19:48:27.864Z,4.68
2022-09-03T19:51:20.585Z,4.82
2022-09-03T19:54:04.103Z,4.15
2022-09-03T19:56:50.641Z,5.13
2022-09-03T19:59:35.798Z,4.38
2022-09-03T20:02:20.524Z,4.93
2022-09-03T20:05:08.636Z,4.10
2022-09-03T20:07:55.179Z,4.10
2022-09-03T20:10:24.435Z,4.45
2022-09-03T20:13:06.641Z,4.70
2022-09-03T20:15:50.311Z,5.50
2022-09-03T20:18:33.222Z,5.55
2022-09-03T20:21:13.371Z,4.00
2022-09-03T20:23:55.382Z,4.38
2022-09-03T20:26:38.366Z,3.80
2022-09-03T20:29:29.222Z,4.20
2022-09-03T20:32:07.208Z,7.05
2022-09-03T20:34:48.000Z,4.63
2022-09-03T20:37:28.900Z,4.35
2022-09-03T20:40:11.783Z,3.90
2022-09-03T20:43:05.732Z,3.53
2022-09-03T20:45:56.285Z,3.13
2022-09-03T20:48:32.785Z,3.72
2022-09-03T20:51:10.249Z,4.20
2022-09-03T20:54:17.048Z,4.03
2022-09-03T20:57:10.587Z,4.88
2022-09-03T20:59:55.441Z,6.20
2022-09-03T21:02:48.454Z,3.63
2022-09-03T21:05:27.780Z,3.38
2022-09-03T21:08:11.317Z,2.90
2022-09-03T21:10:50.814Z,3.10
2022-09-03T21:13:28.930Z,3.13
2022-09-03T21:16:06.406Z,3.00
2022-09-03T21:18:50.403Z,2.88
2022-09-03T21:21:36.274Z,3.10
2022-09-03T21:24:12.339Z,3.50
2022-09-03T21:26:46.244Z,3.50
2022-09-03T21:29:22.511Z,2.47
2022-09-03T21:31:57.520Z,3.13
2022-09-03T21:34:34.122Z,3.25
2022-09-03T21:37:06.943Z,4.35
2022-09-03T21:39:44.884Z,4.03
2022-09-03T21:42:21.294Z,4.60
2022-09-03T21:44:56.391Z,4.20
2022-09-03T21:47:29.930Z,3.40
2022-09-03T21:50:16.380Z,3.67
2022-09-03T21:52:54.062Z,3.25
2022-09-03T21:55:30.554Z,3.13
2022-09-03T21:58:12.273Z,2.63
2022-09-03T22:00:42.170Z,2.97
2022-09-03T22:03:13.482Z,2.80
2022-09-03T22:05:55.169Z,2.92
2022-09-03T22:08:34.416Z,2.80
2022-09-03T22:11:12.352Z,2.03
2022-09-03T22:13:52.587Z,2.75
2022-09-03T22:16:30.251Z,2.58
2022-09-03T22:19:00.673Z,2.22
2022-09-03T22:21:38.961Z,2.95
2022-09-03T22:24:24.815Z,2.30
2022-09-03T22:27:00.827Z,2.47
2022-09-03T22:29:39.723Z,2.33
2022-09-03T22:32:25.427Z,2.10
2022-09-03T22:35:13.387Z,2.33
2022-09-03T22:37:59.522Z,2.00
2022-09-03T22:40:34.931Z,2.20
2022-09-03T22:43:36.686Z,2.20
2022-09-03T22:46:14.586Z,2.10
2022-09-03T22:49:14.766Z,2.25
2022-09-03T22:51:57.199Z,1.92
2022-09-03T22:54:41.739Z,2.25
2022-09-03T22:57:13.408Z,2.10
2022-09-03T22:59:47.285Z,2.22
2022-09-03T23:02:22.579Z,2.08
2022-09-03T23:05:02.248Z,1.88
2022-09-03T23:07:37.807Z,1.70
2022-09-03T23:10:24.339Z,2.20
2022-09-03T23:13:06.106Z,2.05
2022-09-03T23:15:39.826Z,2.05
2022-09-03T23:18:17.579Z,2.00
2022-09-03T23:20:54.239Z,2.22
2022-09-03T23:23:30.844Z,2.30
2022-09-03T23:26:13.407Z,2.47
2022-09-03T23:28:47.504Z,2.00
2022-09-03T23:31:23.058Z,1.80
2022-09-03T23:33:55.913Z,2.40
2022-09-03T23:37:01.332Z,2.20
2022-09-03T23:39:37.764Z,2.25
2022-09-03T23:42:23.112Z,2.35
2022-09-03T23:45:10.229Z,1.95
2022-09-03T23:47:52.266Z,2.15
2022-09-03T23:50:34.466Z,2.13
2022-09-03T23:53:26.397Z,1.70
2022-09-03T23:56:15.953Z,1.92
2022-09-03T23:59:03.767Z,1.65
